sensor_id;sensor_type;location;lat;lon;timestamp;P1;durP1;ratioP1;P2;durP2;ratioP2
54921;SDS011;40824;45.116;21.296;2023-03-12T00:00:39;10.40;;;5.13;;
54921;SDS011;40824;45.116;21.296;2023-03-12T00:03:14;11.57;;;5.40;;
54921;SDS011;40824;45.116;21.296;2023-03-12T00:05:45;10.98;;;5.25;;
54921;SDS011;40824;45.116;21.296;2023-03-12T00:08:32;7.80;;;5.13;;
54921;SDS011;40824;45.116;21.296;2023-03-12T00:10:58;7.28;;;5.20;;
54921;SDS011;40824;45.116;21.296;2023-03-12T00:13:24;12.90;;;5.63;;
54921;SDS011;40824;45.116;21.296;2023-03-12T00:15:50;8.25;;;5.40;;
54921;SDS011;40824;45.116;21.296;2023-03-12T00:23:37;10.45;;;6.90;;
54921;SDS011;40824;45.116;21.296;2023-03-12T00:26:06;12.93;;;6.00;;
54921;SDS011;40824;45.116;21.296;2023-03-12T00:28:36;10.25;;;6.05;;
54921;SDS011;40824;45.116;21.296;2023-03-12T00:31:11;11.95;;;5.53;;
54921;SDS011;40824;45.116;21.296;2023-03-12T00:33:45;10.35;;;4.97;;
54921;SDS011;40824;45.116;21.296;2023-03-12T00:36:20;9.27;;;5.32;;
54921;SDS011;40824;45.116;21.296;2023-03-12T00:38:51;11.25;;;5.47;;
54921;SDS011;40824;45.116;21.296;2023-03-12T00:41:17;6.05;;;4.60;;
54921;SDS011;40824;45.116;21.296;2023-03-12T00:43:46;7.45;;;4.68;;
54921;SDS011;40824;45.116;21.296;2023-03-12T00:46:15;6.85;;;4.28;;
54921;SDS011;40824;45.116;21.296;2023-03-12T00:48:44;5.70;;;4.30;;
54921;SDS011;40824;45.116;21.296;2023-03-12T00:51:10;7.22;;;4.05;;
54921;SDS011;40824;45.116;21.296;2023-03-12T00:53:36;9.38;;;4.68;;
54921;SDS011;40824;45.116;21.296;2023-03-12T00:56:03;6.90;;;4.63;;
54921;SDS011;40824;45.116;21.296;2023-03-12T01:01:10;7.07;;;4.60;;
54921;SDS011;40824;45.116;21.296;2023-03-12T01:03:36;12.52;;;5.30;;
54921;SDS011;40824;45.116;21.296;2023-03-12T01:06:11;7.63;;;4.82;;
54921;SDS011;40824;45.116;21.296;2023-03-12T01:08:58;8.18;;;4.95;;
54921;SDS011;40824;45.116;21.296;2023-03-12T01:11:24;9.57;;;4.80;;
54921;SDS011;40824;45.116;21.296;2023-03-12T01:14:04;7.38;;;4.70;;
54921;SDS011;40824;45.116;21.296;2023-03-12T01:19:23;8.60;;;5.30;;
54921;SDS011;40824;45.116;21.296;2023-03-12T01:21:54;6.82;;;4.78;;
54921;SDS011;40824;45.116;21.296;2023-03-12T01:24:43;11.05;;;5.70;;
54921;SDS011;40824;45.116;21.296;2023-03-12T01:27:12;6.70;;;4.85;;
54921;SDS011;40824;45.116;21.296;2023-03-12T01:29:51;7.72;;;5.30;;
54921;SDS011;40824;45.116;21.296;2023-03-12T01:32:25;8.20;;;5.13;;
54921;SDS011;40824;45.116;21.296;2023-03-12T01:34:58;7.45;;;5.85;;
54921;SDS011;40824;45.116;21.296;2023-03-12T01:37:40;7.15;;;5.47;;
54921;SDS011;40824;45.116;21.296;2023-03-12T01:40:26;11.55;;;5.57;;
54921;SDS011;40824;45.116;21.296;2023-03-12T01:42:54;7.72;;;5.57;;
54921;SDS011;40824;45.116;21.296;2023-03-12T01:48:10;8.48;;;5.55;;
54921;SDS011;40824;45.116;21.296;2023-03-12T01:50:51;9.23;;;5.25;;
54921;SDS011;40824;45.116;21.296;2023-03-12T01:53:17;7.03;;;5.25;;
54921;SDS011;40824;45.116;21.296;2023-03-12T01:55:43;8.38;;;6.07;;
54921;SDS011;40824;45.116;21.296;2023-03-12T01:58:09;7.22;;;5.53;;
54921;SDS011;40824;45.116;21.296;2023-03-12T02:00:36;9.23;;;5.47;;
54921;SDS011;40824;45.116;21.296;2023-03-12T02:03:03;9.38;;;5.38;;
54921;SDS011;40824;45.116;21.296;2023-03-12T02:08:15;7.45;;;5.13;;
54921;SDS011;40824;45.116;21.296;2023-03-12T02:10:42;8.30;;;5.78;;
54921;SDS011;40824;45.116;21.296;2023-03-12T02:13:08;8.13;;;5.63;;
54921;SDS011;40824;45.116;21.296;2023-03-12T02:15:35;10.30;;;6.30;;
54921;SDS011;40824;45.116;21.296;2023-03-12T02:18:06;8.73;;;5.95;;
54921;SDS011;40824;45.116;21.296;2023-03-12T02:23:24;10.57;;;5.30;;
54921;SDS011;40824;45.116;21.296;2023-03-12T02:25:51;8.30;;;5.90;;
54921;SDS011;40824;45.116;21.296;2023-03-12T02:28:19;8.15;;;5.40;;
54921;SDS011;40824;45.116;21.296;2023-03-12T02:30:48;8.45;;;5.97;;
54921;SDS011;40824;45.116;21.296;2023-03-12T02:33:14;9.05;;;5.97;;
54921;SDS011;40824;45.116;21.296;2023-03-12T02:35:41;13.10;;;6.07;;
54921;SDS011;40824;45.116;21.296;2023-03-12T02:41:10;7.82;;;5.40;;
54921;SDS011;40824;45.116;21.296;2023-03-12T02:43:37;9.85;;;6.18;;
54921;SDS011;40824;45.116;21.296;2023-03-12T02:46:04;10.80;;;6.90;;
54921;SDS011;40824;45.116;21.296;2023-03-12T02:48:30;7.10;;;5.25;;
54921;SDS011;40824;45.116;21.296;2023-03-12T02:50:56;9.10;;;6.72;;
54921;SDS011;40824;45.116;21.296;2023-03-12T02:53:22;13.13;;;6.05;;
54921;SDS011;40824;45.116;21.296;2023-03-12T02:55:48;8.45;;;6.13;;
54921;SDS011;40824;45.116;21.296;2023-03-12T02:58:14;10.65;;;5.80;;
54921;SDS011;40824;45.116;21.296;2023-03-12T03:00:40;9.43;;;6.40;;
54921;SDS011;40824;45.116;21.296;2023-03-12T03:03:06;8.65;;;6.60;;
54921;SDS011;40824;45.116;21.296;2023-03-12T03:05:32;8.05;;;6.00;;
54921;SDS011;40824;45.116;21.296;2023-03-12T03:08:01;10.55;;;6.47;;
54921;SDS011;40824;45.116;21.296;2023-03-12T03:10:27;10.07;;;7.88;;
54921;SDS011;40824;45.116;21.296;2023-03-12T03:12:54;13.88;;;7.55;;
54921;SDS011;40824;45.116;21.296;2023-03-12T03:15:20;12.50;;;7.60;;
54921;SDS011;40824;45.116;21.296;2023-03-12T03:17:46;11.57;;;7.47;;
54921;SDS011;40824;45.116;21.296;2023-03-12T03:20:12;12.48;;;7.30;;
54921;SDS011;40824;45.116;21.296;2023-03-12T03:22:38;11.90;;;7.43;;
54921;SDS011;40824;45.116;21.296;2023-03-12T03:25:05;11.80;;;7.78;;
54921;SDS011;40824;45.116;21.296;2023-03-12T03:27:31;11.20;;;8.15;;
54921;SDS011;40824;45.116;21.296;2023-03-12T03:29:57;12.32;;;7.40;;
54921;SDS011;40824;45.116;21.296;2023-03-12T03:32:23;15.32;;;10.40;;
54921;SDS011;40824;45.116;21.296;2023-03-12T03:34:50;11.45;;;8.50;;
54921;SDS011;40824;45.116;21.296;2023-03-12T03:37:16;12.63;;;8.18;;
54921;SDS011;40824;45.116;21.296;2023-03-12T03:39:42;14.82;;;8.30;;
54921;SDS011;40824;45.116;21.296;2023-03-12T03:42:08;10.43;;;7.22;;
54921;SDS011;40824;45.116;21.296;2023-03-12T03:44:34;13.05;;;8.45;;
54921;SDS011;40824;45.116;21.296;2023-03-12T03:47:00;15.77;;;10.70;;
54921;SDS011;40824;45.116;21.296;2023-03-12T03:49:29;10.02;;;7.43;;
54921;SDS011;40824;45.116;21.296;2023-03-12T03:51:55;15.13;;;9.90;;
54921;SDS011;40824;45.116;21.296;2023-03-12T03:54:21;16.80;;;10.02;;
54921;SDS011;40824;45.116;21.296;2023-03-12T03:56:47;11.80;;;9.25;;
54921;SDS011;40824;45.116;21.296;2023-03-12T03:59:13;15.30;;;10.15;;
54921;SDS011;40824;45.116;21.296;2023-03-12T04:01:39;11.10;;;8.25;;
54921;SDS011;40824;45.116;21.296;2023-03-12T04:04:05;15.45;;;9.65;;
54921;SDS011;40824;45.116;21.296;2023-03-12T04:06:31;17.95;;;10.68;;
54921;SDS011;40824;45.116;21.296;2023-03-12T04:09:00;10.30;;;7.22;;
54921;SDS011;40824;45.116;21.296;2023-03-12T04:11:32;9.95;;;7.22;;
54921;SDS011;40824;45.116;21.296;2023-03-12T04:14:06;10.30;;;7.82;;
54921;SDS011;40824;45.116;21.296;2023-03-12T04:16:32;9.18;;;7.18;;
54921;SDS011;40824;45.116;21.296;2023-03-12T04:18:58;9.07;;;6.50;;
54921;SDS011;40824;45.116;21.296;2023-03-12T04:21:29;9.38;;;6.18;;
54921;SDS011;40824;45.116;21.296;2023-03-12T04:23:58;9.35;;;7.15;;
54921;SDS011;40824;45.116;21.296;2023-03-12T04:26:27;9.88;;;7.45;;
54921;SDS011;40824;45.116;21.296;2023-03-12T04:29:13;8.43;;;6.47;;
54921;SDS011;40824;45.116;21.296;2023-03-12T04:31:40;10.30;;;6.60;;
54921;SDS011;40824;45.116;21.296;2023-03-12T04:34:06;8.73;;;6.57;;
54921;SDS011;40824;45.116;21.296;2023-03-12T04:36:33;10.70;;;6.30;;
54921;SDS011;40824;45.116;21.296;2023-03-12T04:38:59;7.93;;;6.53;;
54921;SDS011;40824;45.116;21.296;2023-03-12T04:41:25;11.00;;;7.45;;
54921;SDS011;40824;45.116;21.296;2023-03-12T04:43:51;8.55;;;6.35;;
54921;SDS011;40824;45.116;21.296;2023-03-12T04:46:18;9.02;;;6.50;;
54921;SDS011;40824;45.116;21.296;2023-03-12T04:48:44;9.73;;;6.38;;
54921;SDS011;40824;45.116;21.296;2023-03-12T04:51:10;7.78;;;6.07;;
54921;SDS011;40824;45.116;21.296;2023-03-12T04:53:39;8.75;;;6.40;;
54921;SDS011;40824;45.116;21.296;2023-03-12T04:56:32;8.18;;;6.25;;
54921;SDS011;40824;45.116;21.296;2023-03-12T05:01:57;7.85;;;5.55;;
54921;SDS011;40824;45.116;21.296;2023-03-12T05:04:23;9.32;;;6.15;;
54921;SDS011;40824;45.116;21.296;2023-03-12T05:06:49;11.15;;;6.93;;
54921;SDS011;40824;45.116;21.296;2023-03-12T05:09:15;8.23;;;6.57;;
54921;SDS011;40824;45.116;21.296;2023-03-12T05:11:41;10.32;;;6.85;;
54921;SDS011;40824;45.116;21.296;2023-03-12T05:14:08;9.10;;;7.13;;
54921;SDS011;40824;45.116;21.296;2023-03-12T05:16:34;9.45;;;7.57;;
54921;SDS011;40824;45.116;21.296;2023-03-12T05:19:00;10.65;;;6.85;;
54921;SDS011;40824;45.116;21.296;2023-03-12T05:21:26;10.15;;;8.10;;
54921;SDS011;40824;45.116;21.296;2023-03-12T05:24:00;11.10;;;7.07;;
54921;SDS011;40824;45.116;21.296;2023-03-12T05:26:27;9.18;;;6.65;;
54921;SDS011;40824;45.116;21.296;2023-03-12T05:28:55;8.23;;;6.13;;
54921;SDS011;40824;45.116;21.296;2023-03-12T05:31:24;10.20;;;6.97;;
54921;SDS011;40824;45.116;21.296;2023-03-12T05:33:51;9.02;;;6.78;;
54921;SDS011;40824;45.116;21.296;2023-03-12T05:36:34;11.02;;;7.22;;
54921;SDS011;40824;45.116;21.296;2023-03-12T05:41:38;7.97;;;6.70;;
54921;SDS011;40824;45.116;21.296;2023-03-12T05:44:10;10.70;;;7.18;;
54921;SDS011;40824;45.116;21.296;2023-03-12T05:46:45;10.20;;;7.40;;
54921;SDS011;40824;45.116;21.296;2023-03-12T05:49:14;8.73;;;6.93;;
54921;SDS011;40824;45.116;21.296;2023-03-12T05:51:44;8.25;;;6.93;;
54921;SDS011;40824;45.116;21.296;2023-03-12T05:54:16;11.77;;;7.38;;
54921;SDS011;40824;45.116;21.296;2023-03-12T05:56:47;9.18;;;6.50;;
54921;SDS011;40824;45.116;21.296;2023-03-12T05:59:28;8.85;;;6.53;;
54921;SDS011;40824;45.116;21.296;2023-03-12T06:01:54;9.65;;;6.50;;
54921;SDS011;40824;45.116;21.296;2023-03-12T06:04:30;8.68;;;6.65;;
54921;SDS011;40824;45.116;21.296;2023-03-12T06:06:58;7.95;;;6.60;;
54921;SDS011;40824;45.116;21.296;2023-03-12T06:09:34;9.38;;;7.40;;
54921;SDS011;40824;45.116;21.296;2023-03-12T06:12:00;7.90;;;6.70;;
54921;SDS011;40824;45.116;21.296;2023-03-12T06:14:26;11.05;;;7.88;;
54921;SDS011;40824;45.116;21.296;2023-03-12T06:16:52;11.85;;;9.57;;
54921;SDS011;40824;45.116;21.296;2023-03-12T06:19:36;10.63;;;7.38;;
54921;SDS011;40824;45.116;21.296;2023-03-12T06:22:07;8.05;;;6.72;;
54921;SDS011;40824;45.116;21.296;2023-03-12T06:24:44;7.63;;;6.68;;
54921;SDS011;40824;45.116;21.296;2023-03-12T06:27:45;9.15;;;7.20;;
54921;SDS011;40824;45.116;21.296;2023-03-12T06:30:33;9.15;;;6.97;;
54921;SDS011;40824;45.116;21.296;2023-03-12T06:33:07;10.57;;;7.05;;
54921;SDS011;40824;45.116;21.296;2023-03-12T06:35:36;11.00;;;7.47;;
54921;SDS011;40824;45.116;21.296;2023-03-12T06:38:02;8.60;;;7.32;;
54921;SDS011;40824;45.116;21.296;2023-03-12T06:40:31;9.18;;;7.63;;
54921;SDS011;40824;45.116;21.296;2023-03-12T06:45:46;8.05;;;6.43;;
54921;SDS011;40824;45.116;21.296;2023-03-12T06:48:33;9.40;;;7.05;;
54921;SDS011;40824;45.116;21.296;2023-03-12T06:51:05;8.70;;;7.13;;
54921;SDS011;40824;45.116;21.296;2023-03-12T06:53:34;7.80;;;6.90;;
54921;SDS011;40824;45.116;21.296;2023-03-12T06:56:06;18.10;;;16.30;;
54921;SDS011;40824;45.116;21.296;2023-03-12T06:58:32;11.02;;;8.38;;
54921;SDS011;40824;45.116;21.296;2023-03-12T07:00:58;8.43;;;7.53;;
54921;SDS011;40824;45.116;21.296;2023-03-12T07:03:24;9.32;;;6.30;;
54921;SDS011;40824;45.116;21.296;2023-03-12T07:05:54;7.35;;;6.45;;
54921;SDS011;40824;45.116;21.296;2023-03-12T07:08:20;8.60;;;6.32;;
54921;SDS011;40824;45.116;21.296;2023-03-12T07:10:49;7.70;;;6.65;;
54921;SDS011;40824;45.116;21.296;2023-03-12T07:13:15;6.90;;;6.13;;
54921;SDS011;40824;45.116;21.296;2023-03-12T07:15:41;7.75;;;5.93;;
54921;SDS011;40824;45.116;21.296;2023-03-12T07:18:10;6.78;;;6.07;;
54921;SDS011;40824;45.116;21.296;2023-03-12T07:20:37;10.20;;;6.25;;
54921;SDS011;40824;45.116;21.296;2023-03-12T07:23:03;7.90;;;6.65;;
54921;SDS011;40824;45.116;21.296;2023-03-12T07:25:30;8.07;;;6.80;;
54921;SDS011;40824;45.116;21.296;2023-03-12T07:27:56;7.53;;;6.72;;
54921;SDS011;40824;45.116;21.296;2023-03-12T07:30:22;8.05;;;6.85;;
54921;SDS011;40824;45.116;21.296;2023-03-12T07:32:48;8.20;;;5.65;;
54921;SDS011;40824;45.116;21.296;2023-03-12T07:35:14;8.10;;;6.28;;
54921;SDS011;40824;45.116;21.296;2023-03-12T07:37:40;7.75;;;6.25;;
54921;SDS011;40824;45.116;21.296;2023-03-12T07:40:06;7.45;;;6.22;;
54921;SDS011;40824;45.116;21.296;2023-03-12T07:42:32;6.80;;;5.93;;
54921;SDS011;40824;45.116;21.296;2023-03-12T07:44:59;6.45;;;5.75;;
54921;SDS011;40824;45.116;21.296;2023-03-12T07:47:25;8.48;;;6.68;;
54921;SDS011;40824;45.116;21.296;2023-03-12T07:49:51;7.85;;;6.10;;
54921;SDS011;40824;45.116;21.296;2023-03-12T07:52:18;7.60;;;6.82;;
54921;SDS011;40824;45.116;21.296;2023-03-12T07:54:44;7.88;;;6.22;;
54921;SDS011;40824;45.116;21.296;2023-03-12T07:57:10;7.22;;;5.78;;
54921;SDS011;40824;45.116;21.296;2023-03-12T07:59:36;8.18;;;5.70;;
54921;SDS011;40824;45.116;21.296;2023-03-12T08:02:02;7.63;;;6.80;;
54921;SDS011;40824;45.116;21.296;2023-03-12T08:04:28;7.80;;;6.72;;
54921;SDS011;40824;45.116;21.296;2023-03-12T08:06:54;6.82;;;5.85;;
54921;SDS011;40824;45.116;21.296;2023-03-12T08:09:20;8.90;;;8.00;;
54921;SDS011;40824;45.116;21.296;2023-03-12T08:11:46;9.45;;;8.45;;
54921;SDS011;40824;45.116;21.296;2023-03-12T08:14:12;8.75;;;7.22;;
54921;SDS011;40824;45.116;21.296;2023-03-12T08:16:38;11.15;;;9.90;;
54921;SDS011;40824;45.116;21.296;2023-03-12T08:19:04;7.28;;;6.55;;
54921;SDS011;40824;45.116;21.296;2023-03-12T08:21:30;7.10;;;6.40;;
54921;SDS011;40824;45.116;21.296;2023-03-12T08:23:57;9.50;;;6.70;;
54921;SDS011;40824;45.116;21.296;2023-03-12T08:26:23;8.70;;;7.28;;
54921;SDS011;40824;45.116;21.296;2023-03-12T08:28:49;7.15;;;6.20;;
54921;SDS011;40824;45.116;21.296;2023-03-12T08:31:15;8.27;;;6.38;;
54921;SDS011;40824;45.116;21.296;2023-03-12T08:33:41;8.25;;;6.90;;
54921;SDS011;40824;45.116;21.296;2023-03-12T08:36:08;7.35;;;6.13;;
54921;SDS011;40824;45.116;21.296;2023-03-12T08:38:34;6.82;;;5.97;;
54921;SDS011;40824;45.116;21.296;2023-03-12T08:41:00;6.82;;;5.88;;
54921;SDS011;40824;45.116;21.296;2023-03-12T08:43:27;9.20;;;6.38;;
54921;SDS011;40824;45.116;21.296;2023-03-12T08:45:56;7.55;;;6.07;;
54921;SDS011;40824;45.116;21.296;2023-03-12T08:48:23;8.02;;;6.30;;
54921;SDS011;40824;45.116;21.296;2023-03-12T08:50:49;7.65;;;6.65;;
54921;SDS011;40824;45.116;21.296;2023-03-12T08:53:15;6.90;;;5.88;;
54921;SDS011;40824;45.116;21.296;2023-03-12T08:55:42;6.97;;;6.28;;
54921;SDS011;40824;45.116;21.296;2023-03-12T08:58:09;6.70;;;5.95;;
54921;SDS011;40824;45.116;21.296;2023-03-12T09:00:36;7.72;;;6.30;;
54921;SDS011;40824;45.116;21.296;2023-03-12T09:03:02;7.38;;;6.32;;
54921;SDS011;40824;45.116;21.296;2023-03-12T09:05:31;13.75;;;12.23;;
54921;SDS011;40824;45.116;21.296;2023-03-12T09:07:57;7.30;;;6.03;;
54921;SDS011;40824;45.116;21.296;2023-03-12T09:10:24;7.25;;;5.95;;
54921;SDS011;40824;45.116;21.296;2023-03-12T09:12:51;6.90;;;6.15;;
54921;SDS011;40824;45.116;21.296;2023-03-12T09:15:17;6.57;;;5.43;;
54921;SDS011;40824;45.116;21.296;2023-03-12T09:17:43;7.88;;;7.03;;
54921;SDS011;40824;45.116;21.296;2023-03-12T09:20:09;239.70;;;193.60;;
54921;SDS011;40824;45.116;21.296;2023-03-12T09:22:38;55.13;;;45.33;;
54921;SDS011;40824;45.116;21.296;2023-03-12T09:25:05;12.55;;;11.35;;
54921;SDS011;40824;45.116;21.296;2023-03-12T09:27:40;9.85;;;8.95;;
54921;SDS011;40824;45.116;21.296;2023-03-12T09:30:08;15.02;;;13.63;;
54921;SDS011;40824;45.116;21.296;2023-03-12T09:32:36;8.20;;;7.40;;
54921;SDS011;40824;45.116;21.296;2023-03-12T09:35:02;10.73;;;9.63;;
54921;SDS011;40824;45.116;21.296;2023-03-12T09:37:28;8.10;;;6.47;;
54921;SDS011;40824;45.116;21.296;2023-03-12T09:39:56;8.07;;;7.28;;
54921;SDS011;40824;45.116;21.296;2023-03-12T09:42:24;7.45;;;6.75;;
54921;SDS011;40824;45.116;21.296;2023-03-12T09:44:52;8.20;;;6.95;;
54921;SDS011;40824;45.116;21.296;2023-03-12T09:47:34;8.98;;;7.00;;
54921;SDS011;40824;45.116;21.296;2023-03-12T09:57:39;8.18;;;7.15;;
54921;SDS011;40824;45.116;21.296;2023-03-12T10:00:07;18.10;;;13.10;;
54921;SDS011;40824;45.116;21.296;2023-03-12T10:07:53;76.15;;;41.33;;
54921;SDS011;40824;45.116;21.296;2023-03-12T10:10:25;30.33;;;21.38;;
54921;SDS011;40824;45.116;21.296;2023-03-12T10:18:10;71.47;;;64.70;;
54921;SDS011;40824;45.116;21.296;2023-03-12T10:23:20;11.38;;;10.13;;
54921;SDS011;40824;45.116;21.296;2023-03-12T10:25:57;6.95;;;6.20;;
54921;SDS011;40824;45.116;21.296;2023-03-12T10:28:28;10.05;;;7.30;;
54921;SDS011;40824;45.116;21.296;2023-03-12T10:30:57;7.82;;;6.78;;
54921;SDS011;40824;45.116;21.296;2023-03-12T10:33:27;6.97;;;5.75;;
54921;SDS011;40824;45.116;21.296;2023-03-12T10:35:58;7.15;;;6.45;;
54921;SDS011;40824;45.116;21.296;2023-03-12T10:38:28;7.35;;;6.50;;
54921;SDS011;40824;45.116;21.296;2023-03-12T10:40:54;9.77;;;7.68;;
54921;SDS011;40824;45.116;21.296;2023-03-12T10:43:20;12.68;;;8.30;;
54921;SDS011;40824;45.116;21.296;2023-03-12T10:45:59;10.55;;;7.95;;
54921;SDS011;40824;45.116;21.296;2023-03-12T10:48:29;14.70;;;10.20;;
54921;SDS011;40824;45.116;21.296;2023-03-12T10:51:13;8.15;;;6.68;;
54921;SDS011;40824;45.116;21.296;2023-03-12T10:53:40;10.65;;;8.50;;
54921;SDS011;40824;45.116;21.296;2023-03-12T10:56:16;7.25;;;6.20;;
54921;SDS011;40824;45.116;21.296;2023-03-12T11:03:40;7.40;;;6.30;;
54921;SDS011;40824;45.116;21.296;2023-03-12T11:06:07;7.47;;;6.03;;
54921;SDS011;40824;45.116;21.296;2023-03-12T11:08:39;99.05;;;40.40;;
54921;SDS011;40824;45.116;21.296;2023-03-12T11:11:06;135.40;;;63.88;;
54921;SDS011;40824;45.116;21.296;2023-03-12T11:13:36;51.72;;;25.25;;
54921;SDS011;40824;45.116;21.296;2023-03-12T11:16:24;142.35;;;62.13;;
54921;SDS011;40824;45.116;21.296;2023-03-12T11:18:56;221.70;;;91.82;;
54921;SDS011;40824;45.116;21.296;2023-03-12T11:21:24;502.30;;;204.90;;
54921;SDS011;40824;45.116;21.296;2023-03-12T11:28:50;40.97;;;35.65;;
54921;SDS011;40824;45.116;21.296;2023-03-12T11:31:27;14.10;;;12.57;;
54921;SDS011;40824;45.116;21.296;2023-03-12T11:33:56;10.75;;;9.73;;
54921;SDS011;40824;45.116;21.296;2023-03-12T11:39:57;16.77;;;12.98;;
54921;SDS011;40824;45.116;21.296;2023-03-12T11:57:37;248.52;;;100.90;;
54921;SDS011;40824;45.116;21.296;2023-03-12T12:00:18;487.58;;;185.73;;
54921;SDS011;40824;45.116;21.296;2023-03-12T12:08:07;484.92;;;284.90;;
54921;SDS011;40824;45.116;21.296;2023-03-12T12:10:51;363.08;;;189.23;;
54921;SDS011;40824;45.116;21.296;2023-03-12T12:16:12;19.35;;;14.10;;
54921;SDS011;40824;45.116;21.296;2023-03-12T12:23:55;8.05;;;6.28;;
54921;SDS011;40824;45.116;21.296;2023-03-12T12:26:25;7.88;;;7.07;;
54921;SDS011;40824;45.116;21.296;2023-03-12T12:29:10;11.65;;;8.63;;
54921;SDS011;40824;45.116;21.296;2023-03-12T12:31:53;9.90;;;8.10;;
54921;SDS011;40824;45.116;21.296;2023-03-12T12:34:33;10.68;;;6.43;;
54921;SDS011;40824;45.116;21.296;2023-03-12T12:39:57;9.18;;;6.72;;
54921;SDS011;40824;45.116;21.296;2023-03-12T12:42:30;15.70;;;7.57;;
54921;SDS011;40824;45.116;21.296;2023-03-12T12:44:57;9.85;;;6.80;;
54921;SDS011;40824;45.116;21.296;2023-03-12T12:47:29;7.40;;;5.68;;
54921;SDS011;40824;45.116;21.296;2023-03-12T12:49:57;8.23;;;6.53;;
54921;SDS011;40824;45.116;21.296;2023-03-12T12:52:24;20.55;;;12.05;;
54921;SDS011;40824;45.116;21.296;2023-03-12T13:00:08;100.13;;;45.75;;
54921;SDS011;40824;45.116;21.296;2023-03-12T13:02:39;246.65;;;95.35;;
54921;SDS011;40824;45.116;21.296;2023-03-12T13:07:47;139.82;;;50.70;;
54921;SDS011;40824;45.116;21.296;2023-03-12T13:13:09;50.25;;;27.85;;
54921;SDS011;40824;45.116;21.296;2023-03-12T13:15:39;47.95;;;26.83;;
54921;SDS011;40824;45.116;21.296;2023-03-12T13:38:51;12.18;;;9.27;;
54921;SDS011;40824;45.116;21.296;2023-03-12T13:41:37;9.45;;;7.05;;
54921;SDS011;40824;45.116;21.296;2023-03-12T13:47:02;8.52;;;5.53;;
54921;SDS011;40824;45.116;21.296;2023-03-12T13:49:36;9.27;;;7.53;;
54921;SDS011;40824;45.116;21.296;2023-03-12T13:54:32;11.00;;;8.35;;
54921;SDS011;40824;45.116;21.296;2023-03-12T13:57:00;7.93;;;6.30;;
54921;SDS011;40824;45.116;21.296;2023-03-12T13:59:27;7.72;;;6.35;;
54921;SDS011;40824;45.116;21.296;2023-03-12T14:01:58;8.65;;;5.88;;
54921;SDS011;40824;45.116;21.296;2023-03-12T14:04:38;13.63;;;6.07;;
54921;SDS011;40824;45.116;21.296;2023-03-12T14:17:18;6.63;;;5.78;;
54921;SDS011;40824;45.116;21.296;2023-03-12T14:19:46;7.25;;;5.30;;
54921;SDS011;40824;45.116;21.296;2023-03-12T14:22:12;9.13;;;6.43;;
54921;SDS011;40824;45.116;21.296;2023-03-12T14:24:50;8.40;;;5.90;;
54921;SDS011;40824;45.116;21.296;2023-03-12T14:29:51;11.60;;;6.30;;
54921;SDS011;40824;45.116;21.296;2023-03-12T14:32:26;10.27;;;6.60;;
54921;SDS011;40824;45.116;21.296;2023-03-12T14:37:20;10.98;;;7.15;;
54921;SDS011;40824;45.116;21.296;2023-03-12T14:39:49;10.90;;;8.13;;
54921;SDS011;40824;45.116;21.296;2023-03-12T14:42:26;15.00;;;10.40;;
54921;SDS011;40824;45.116;21.296;2023-03-12T14:44:54;11.20;;;9.88;;
54921;SDS011;40824;45.116;21.296;2023-03-12T14:47:22;22.23;;;19.58;;
54921;SDS011;40824;45.116;21.296;2023-03-12T14:49:50;22.50;;;17.15;;
54921;SDS011;40824;45.116;21.296;2023-03-12T14:52:24;25.90;;;19.50;;
54921;SDS011;40824;45.116;21.296;2023-03-12T14:54:58;17.90;;;10.57;;
54921;SDS011;40824;45.116;21.296;2023-03-12T14:59:51;15.82;;;11.77;;
54921;SDS011;40824;45.116;21.296;2023-03-12T15:02:18;21.52;;;17.77;;
54921;SDS011;40824;45.116;21.296;2023-03-12T15:04:45;12.18;;;7.90;;
54921;SDS011;40824;45.116;21.296;2023-03-12T15:07:12;18.60;;;13.18;;
54921;SDS011;40824;45.116;21.296;2023-03-12T15:09:41;19.05;;;15.45;;
54921;SDS011;40824;45.116;21.296;2023-03-12T15:12:22;24.63;;;17.75;;
54921;SDS011;40824;45.116;21.296;2023-03-12T15:14:49;14.80;;;8.82;;
54921;SDS011;40824;45.116;21.296;2023-03-12T15:17:19;12.73;;;8.07;;
54921;SDS011;40824;45.116;21.296;2023-03-12T15:19:46;10.27;;;8.48;;
54921;SDS011;40824;45.116;21.296;2023-03-12T15:22:17;10.50;;;8.05;;
54921;SDS011;40824;45.116;21.296;2023-03-12T15:24:44;13.25;;;8.38;;
54921;SDS011;40824;45.116;21.296;2023-03-12T15:27:17;11.27;;;8.40;;
54921;SDS011;40824;45.116;21.296;2023-03-12T15:29:43;12.70;;;9.60;;
54921;SDS011;40824;45.116;21.296;2023-03-12T15:32:12;17.10;;;12.68;;
54921;SDS011;40824;45.116;21.296;2023-03-12T15:34:39;13.52;;;9.25;;
54921;SDS011;40824;45.116;21.296;2023-03-12T15:40:05;12.40;;;9.20;;
54921;SDS011;40824;45.116;21.296;2023-03-12T15:42:37;27.95;;;15.27;;
54921;SDS011;40824;45.116;21.296;2023-03-12T15:45:04;13.05;;;9.93;;
54921;SDS011;40824;45.116;21.296;2023-03-12T15:47:33;13.57;;;10.27;;
54921;SDS011;40824;45.116;21.296;2023-03-12T15:50:49;20.77;;;10.50;;
54921;SDS011;40824;45.116;21.296;2023-03-12T15:55:32;12.18;;;9.18;;
54921;SDS011;40824;45.116;21.296;2023-03-12T15:57:58;13.38;;;10.05;;
54921;SDS011;40824;45.116;21.296;2023-03-12T16:05:30;12.27;;;7.82;;
54921;SDS011;40824;45.116;21.296;2023-03-12T16:07:59;12.02;;;8.60;;
54921;SDS011;40824;45.116;21.296;2023-03-12T16:10:27;12.45;;;8.48;;
54921;SDS011;40824;45.116;21.296;2023-03-12T16:12:56;12.55;;;9.18;;
54921;SDS011;40824;45.116;21.296;2023-03-12T16:15:25;19.20;;;13.50;;
54921;SDS011;40824;45.116;21.296;2023-03-12T16:17:52;17.88;;;13.45;;
54921;SDS011;40824;45.116;21.296;2023-03-12T16:20:19;19.90;;;13.10;;
54921;SDS011;40824;45.116;21.296;2023-03-12T16:22:45;21.48;;;12.32;;
54921;SDS011;40824;45.116;21.296;2023-03-12T16:25:11;21.27;;;14.52;;
54921;SDS011;40824;45.116;21.296;2023-03-12T16:27:38;22.63;;;14.95;;
54921;SDS011;40824;45.116;21.296;2023-03-12T16:30:09;19.73;;;12.80;;
54921;SDS011;40824;45.116;21.296;2023-03-12T16:32:37;18.10;;;11.55;;
54921;SDS011;40824;45.116;21.296;2023-03-12T16:35:10;14.05;;;10.18;;
54921;SDS011;40824;45.116;21.296;2023-03-12T16:37:37;15.77;;;10.88;;
54921;SDS011;40824;45.116;21.296;2023-03-12T16:40:03;15.48;;;11.27;;
54921;SDS011;40824;45.116;21.296;2023-03-12T16:42:30;15.57;;;12.43;;
54921;SDS011;40824;45.116;21.296;2023-03-12T16:44:58;20.45;;;14.20;;
54921;SDS011;40824;45.116;21.296;2023-03-12T16:47:24;45.13;;;32.95;;
54921;SDS011;40824;45.116;21.296;2023-03-12T16:49:50;29.08;;;23.23;;
54921;SDS011;40824;45.116;21.296;2023-03-12T16:52:20;29.10;;;19.65;;
54921;SDS011;40824;45.116;21.296;2023-03-12T16:54:47;28.02;;;21.73;;
54921;SDS011;40824;45.116;21.296;2023-03-12T16:57:15;27.50;;;20.50;;
54921;SDS011;40824;45.116;21.296;2023-03-12T16:59:47;24.50;;;18.48;;
54921;SDS011;40824;45.116;21.296;2023-03-12T17:02:14;27.17;;;18.55;;
54921;SDS011;40824;45.116;21.296;2023-03-12T17:04:41;28.23;;;18.38;;
54921;SDS011;40824;45.116;21.296;2023-03-12T17:07:07;45.08;;;32.45;;
54921;SDS011;40824;45.116;21.296;2023-03-12T17:09:33;53.17;;;33.95;;
54921;SDS011;40824;45.116;21.296;2023-03-12T17:11:59;39.40;;;24.33;;
54921;SDS011;40824;45.116;21.296;2023-03-12T17:14:26;34.85;;;22.48;;
54921;SDS011;40824;45.116;21.296;2023-03-12T17:16:52;39.28;;;25.60;;